Time;durP1;ratioP1;P1;durP2;ratioP2;P2;SDS_P1;SDS_P2;PMS_P1;PMS_P2;Temp;Humidity;BMP_temperature;BMP_pressure;BME280_temperature;BME280_humidity;BME280_pressure;Samples;Min_cycle;Max_cycle;Signal;HPM_P1;HPM_P2
2023/04/11 00:00:28;;;;;;;1.52;0.50;;;7.40;99.90;;;;;;5055723;28;20041;-68
2023/04/11 00:02:58;;;;;;;2.65;0.57;;;7.30;99.90;;;;;;5056008;28;20029;-67
2023/04/11 00:05:26;;;;;;;2.13;0.63;;;7.20;99.90;;;;;;5055718;28;20463;-68
2023/04/11 00:07:51;;;;;;;1.60;0.40;;;7.20;99.90;;;;;;5055734;28;20059;-68
2023/04/11 00:10:17;;;;;;;1.67;0.50;;;7.10;99.90;;;;;;5055917;28;20107;-68
2023/04/11 00:12:43;;;;;;;1.05;0.50;;;7.10;99.90;;;;;;5055789;28;20037;-67
2023/04/11 00:15:09;;;;;;;1.70;0.38;;;7.10;99.90;;;;;;5055798;28;20040;-67
2023/04/11 00:17:36;;;;;;;4.22;0.40;;;7.10;99.90;;;;;;5055747;28;20037;-67
2023/04/11 00:20:06;;;;;;;0.47;0.40;;;7.10;99.90;;;;;;5055622;28;20048;-68
2023/04/11 00:22:35;;;;;;;1.75;0.57;;;7.10;99.90;;;;;;5055356;28;20037;-67
2023/04/11 00:25:01;;;;;;;4.53;0.60;;;7.10;99.90;;;;;;5055270;28;20037;-67
2023/04/11 00:27:26;;;;;;;2.58;0.70;;;7.00;99.90;;;;;;5055165;28;20175;-67
2023/04/11 00:29:53;;;;;;;2.00;0.40;;;7.00;99.90;;;;;;5055439;28;20033;-67
2023/04/11 00:32:19;;;;;;;4.60;0.80;;;7.00;99.90;;;;;;5055226;28;20045;-67
2023/04/11 00:34:45;;;;;;;2.47;0.63;;;6.90;99.90;;;;;;5055392;28;20486;-68
2023/04/11 00:37:11;;;;;;;1.42;0.50;;;6.90;99.90;;;;;;5055385;28;20111;-68
2023/04/11 00:39:37;;;;;;;4.05;0.35;;;6.80;99.90;;;;;;5055297;28;20079;-67
2023/04/11 00:42:07;;;;;;;2.00;0.70;;;6.70;99.90;;;;;;5054953;28;20076;-67
2023/04/11 00:44:33;;;;;;;0.95;0.90;;;6.70;99.90;;;;;;5036058;28;20047;-68
2023/04/11 00:47:01;;;;;;;3.83;0.65;;;6.60;99.90;;;;;;5054909;28;20094;-67
2023/04/11 00:49:28;;;;;;;0.45;0.30;;;6.60;99.90;;;;;;5037069;28;20036;-67
2023/04/11 00:51:54;;;;;;;1.70;0.38;;;6.60;99.90;;;;;;5054795;28;20036;-67
2023/04/11 00:54:19;;;;;;;2.17;0.50;;;6.60;99.90;;;;;;5055058;28;20041;-67
2023/04/11 00:56:45;;;;;;;1.10;0.30;;;6.60;99.90;;;;;;5054907;28;20159;-67
2023/04/11 00:59:11;;;;;;;1.27;0.50;;;6.60;99.90;;;;;;5054987;28;20186;-67
2023/04/11 01:01:37;;;;;;;0.52;0.40;;;6.70;99.90;;;;;;5054598;28;20560;-67
2023/04/11 01:04:03;;;;;;;0.82;0.35;;;6.70;99.90;;;;;;5054423;28;20116;-67
2023/04/11 01:06:31;;;;;;;1.27;0.73;;;6.70;99.90;;;;;;5054473;28;20420;-67
2023/04/11 01:08:56;;;;;;;3.60;0.60;;;6.80;99.90;;;;;;5054444;28;20432;-67
2023/04/11 01:11:23;;;;;;;2.45;0.63;;;6.80;99.90;;;;;;5054379;28;20039;-67
2023/04/11 01:13:50;;;;;;;3.50;1.08;;;6.80;99.90;;;;;;5054651;28;20082;-68
2023/04/11 01:16:20;;;;;;;4.95;1.05;;;6.80;99.90;;;;;;5054368;28;20045;-67
2023/04/11 01:18:47;;;;;;;2.78;0.70;;;6.70;99.90;;;;;;5054524;28;20036;-67
2023/04/11 01:21:12;;;;;;;2.10;1.08;;;6.70;99.90;;;;;;5054532;28;20506;-67
2023/04/11 01:23:38;;;;;;;1.55;0.45;;;6.70;99.90;;;;;;5054063;28;20072;-67
2023/04/11 01:26:04;;;;;;;4.05;1.23;;;6.70;99.90;;;;;;5054337;28;20076;-67
2023/04/11 01:28:30;;;;;;;2.42;1.00;;;6.70;99.90;;;;;;5054369;28;20044;-67
2023/04/11 01:30:56;;;;;;;0.95;0.45;;;6.70;99.90;;;;;;5054287;28;20416;-67
2023/04/11 01:33:22;;;;;;;4.15;1.17;;;6.70;99.90;;;;;;5036177;28;20060;-67
2023/04/11 01:35:47;;;;;;;2.40;1.13;;;6.70;99.90;;;;;;5054263;28;20056;-68
2023/04/11 01:38:13;;;;;;;1.90;0.85;;;6.70;99.90;;;;;;5054179;28;20041;-67
2023/04/11 01:40:40;;;;;;;2.00;0.82;;;6.70;99.90;;;;;;5054453;28;20129;-67
2023/04/11 01:43:08;;;;;;;1.77;0.50;;;6.70;99.90;;;;;;5053772;28;20041;-67
2023/04/11 01:45:34;;;;;;;2.17;0.65;;;6.70;99.90;;;;;;5053965;28;20486;-68
2023/04/11 01:48:04;;;;;;;2.10;0.82;;;6.60;99.90;;;;;;5053969;28;20083;-67
2023/04/11 01:50:30;;;;;;;2.80;0.70;;;6.70;99.90;;;;;;5035807;28;20116;-67
2023/04/11 01:52:56;;;;;;;2.55;0.95;;;6.60;99.90;;;;;;5053589;28;20120;-67
2023/04/11 01:55:21;;;;;;;4.30;0.57;;;6.60;99.90;;;;;;5053516;28;20059;-67
2023/04/11 01:57:47;;;;;;;2.60;0.90;;;6.60;99.90;;;;;;5035697;28;20048;-67
2023/04/11 02:00:13;;;;;;;2.30;1.05;;;6.70;99.90;;;;;;5053737;28;20494;-67
2023/04/11 02:02:39;;;;;;;7.85;1.05;;;6.60;99.90;;;;;;5053744;28;20072;-67
2023/04/11 02:05:05;;;;;;;2.22;1.23;;;6.60;99.90;;;;;;5053599;28;20081;-67
2023/04/11 02:07:30;;;;;;;2.03;0.82;;;6.60;99.90;;;;;;5053163;28;20055;-67
2023/04/11 02:09:56;;;;;;;0.85;0.45;;;6.60;99.90;;;;;;5053644;28;20040;-67
2023/04/11 02:12:22;;;;;;;1.85;1.15;;;6.60;99.90;;;;;;5053623;28;20114;-66
2023/04/11 02:14:48;;;;;;;4.95;0.80;;;6.60;99.90;;;;;;5053497;28;20040;-67
2023/04/11 02:17:16;;;;;;;2.60;0.85;;;6.70;99.90;;;;;;5053096;28;20037;-67
2023/04/11 02:19:44;;;;;;;5.18;0.93;;;6.70;99.90;;;;;;5053111;28;20049;-67
2023/04/11 02:22:10;;;;;;;1.38;0.50;;;6.80;99.90;;;;;;5053429;28;20388;-67
2023/04/11 02:24:36;;;;;;;2.50;1.13;;;6.90;99.90;;;;;;5053221;28;20493;-67
2023/04/11 02:27:02;;;;;;;2.22;0.60;;;6.80;99.90;;;;;;5053253;28;20083;-68
2023/04/11 02:29:28;;;;;;;2.65;1.10;;;6.80;99.90;;;;;;5053265;28;20553;-67
2023/04/11 02:31:54;;;;;;;1.50;0.73;;;6.90;99.90;;;;;;5053210;28;20119;-69
2023/04/11 02:34:20;;;;;;;3.63;0.77;;;6.90;99.90;;;;;;5053171;28;20045;-68
2023/04/11 02:36:46;;;;;;;2.80;0.50;;;6.90;99.90;;;;;;5053058;28;20500;-70
2023/04/11 02:39:12;;;;;;;1.45;0.52;;;6.90;99.90;;;;;;5053089;28;20041;-67
2023/04/11 02:41:39;;;;;;;1.17;0.70;;;6.90;99.90;;;;;;5053116;28;20119;-68
2023/04/11 02:44:05;;;;;;;1.52;0.63;;;6.90;99.90;;;;;;5052996;28;20040;-67
2023/04/11 02:46:30;;;;;;;0.80;0.55;;;6.90;99.90;;;;;;5053088;28;20035;-67
2023/04/11 02:48:56;;;;;;;5.20;0.93;;;7.30;99.90;;;;;;5052981;28;20033;-67
2023/04/11 02:51:22;;;;;;;2.15;0.68;;;6.90;99.90;;;;;;5018593;28;20535;-68
2023/04/11 02:53:47;;;;;;;4.53;0.77;;;6.90;99.90;;;;;;5052884;28;20041;-68
2023/04/11 02:56:17;;;;;;;3.88;0.70;;;7.00;99.90;;;;;;5052919;28;20036;-66
2023/04/11 02:58:46;;;;;;;0.90;0.65;;;6.90;99.90;;;;;;5052891;28;20479;-66
2023/04/11 03:01:21;;;;;;;2.33;0.30;;;6.90;99.90;;;;;;5052869;28;20060;-66
2023/04/11 03:03:47;;;;;;;2.40;0.75;;;6.90;99.90;;;;;;5052855;28;20040;-66
2023/04/11 03:06:13;;;;;;;1.98;0.65;;;6.90;99.90;;;;;;5053242;28;20206;-67
2023/04/11 03:08:38;;;;;;;3.75;1.05;;;6.90;99.90;;;;;;5038923;28;20041;-66
2023/04/11 03:11:05;;;;;;;0.45;0.30;;;6.80;99.90;;;;;;5038726;28;20033;-66
2023/04/11 03:13:31;;;;;;;1.10;0.50;;;7.30;99.90;;;;;;5056891;28;20447;-67
2023/04/11 03:15:57;;;;;;;0.65;0.30;;;6.80;99.90;;;;;;5056886;28;20045;-67
2023/04/11 03:18:23;;;;;;;1.38;0.32;;;6.80;99.90;;;;;;5057049;28;20361;-66
2023/04/11 03:20:49;;;;;;;0.52;0.38;;;6.80;99.90;;;;;;5056742;28;20041;-66
2023/04/11 03:23:16;;;;;;;2.67;0.30;;;6.80;99.90;;;;;;5056825;28;20435;-63
2023/04/11 03:25:46;;;;;;;1.40;0.43;;;6.90;99.90;;;;;;5056578;28;20044;-67
2023/04/11 03:28:12;;;;;;;0.35;0.35;;;6.80;99.90;;;;;;5056682;28;20041;-75
2023/04/11 03:30:39;;;;;;;2.65;0.45;;;6.90;99.90;;;;;;5056540;28;20491;-66
2023/04/11 03:33:06;;;;;;;2.97;0.43;;;6.80;99.90;;;;;;5056541;28;20037;-65
2023/04/11 03:35:31;;;;;;;1.08;0.50;;;6.80;99.90;;;;;;5056493;28;20045;-66
2023/04/11 03:37:57;;;;;;;0.50;0.30;;;6.80;99.90;;;;;;5038471;28;20508;-66
2023/04/11 03:40:23;;;;;;;0.60;0.38;;;6.70;99.90;;;;;;5056163;28;20080;-67
2023/04/11 03:42:49;;;;;;;0.73;0.30;;;6.70;99.90;;;;;;5056351;28;20044;-66
2023/04/11 03:45:15;;;;;;;0.30;0.30;;;6.70;99.90;;;;;;5038071;28;20473;-67
2023/04/11 03:47:40;;;;;;;0.30;0.30;;;6.70;99.90;;;;;;5056264;28;20048;-68
2023/04/11 03:50:07;;;;;;;2.03;0.68;;;6.70;99.90;;;;;;5056312;28;20059;-67
2023/04/11 03:52:33;;;;;;;3.63;0.63;;;6.70;99.90;;;;;;5056185;28;20059;-66
2023/04/11 03:54:59;;;;;;;0.75;0.40;;;6.70;99.90;;;;;;5056182;28;20055;-67
2023/04/11 03:57:26;;;;;;;1.08;0.52;;;6.70;99.90;;;;;;5056124;28;20037;-66
2023/04/11 03:59:53;;;;;;;1.80;0.55;;;6.70;99.90;;;;;;5056013;28;20076;-66
2023/04/11 04:02:18;;;;;;;0.85;0.43;;;6.70;99.90;;;;;;5056078;28;20037;-66
2023/04/11 04:04:45;;;;;;;0.80;0.50;;;6.80;99.90;;;;;;5038004;28;20128;-66
2023/04/11 04:07:11;;;;;;;1.27;0.73;;;6.70;99.90;;;;;;5055545;28;20509;-66
2023/04/11 04:09:39;;;;;;;1.83;0.82;;;6.70;99.90;;;;;;5055828;28;20415;-67
2023/04/11 04:12:05;;;;;;;0.95;0.95;;;6.80;99.90;;;;;;5037865;28;20083;-67
2023/04/11 04:14:30;;;;;;;2.00;0.75;;;6.80;99.90;;;;;;5055697;28;20072;-66
2023/04/11 04:16:56;;;;;;;1.52;1.02;;;6.90;99.90;;;;;;5055424;28;20044;-67
2023/04/11 04:19:21;;;;;;;1.15;0.90;;;6.90;99.90;;;;;;5055785;28;20041;-66
2023/04/11 04:21:48;;;;;;;1.45;0.60;;;6.90;99.90;;;;;;5037789;28;20099;-66
2023/04/11 04:24:14;;;;;;;2.85;0.88;;;6.90;99.90;;;;;;5037395;28;20094;-66
2023/04/11 04:26:40;;;;;;;6.35;1.23;;;7.00;99.90;;;;;;5055218;28;20112;-66
2023/04/11 04:29:08;;;;;;;2.90;0.80;;;7.00;99.90;;;;;;5055487;28;20037;-66
2023/04/11 04:31:34;;;;;;;4.45;1.25;;;7.10;99.90;;;;;;5055427;28;20501;-66
2023/04/11 04:34:08;;;;;;;1.92;0.60;;;7.10;99.90;;;;;;5037430;28;20041;-66
2023/04/11 04:36:47;;;;;;;3.25;0.82;;;7.20;99.90;;;;;;5037170;28;20047;-66
2023/04/11 04:39:17;;;;;;;4.07;1.17;;;7.20;99.90;;;;;;5055290;28;20040;-66
2023/04/11 04:41:56;;;;;;;3.50;0.88;;;7.30;99.90;;;;;;5055256;28;20079;-66
2023/04/11 04:44:23;;;;;;;5.15;1.00;;;7.30;99.90;;;;;;5055438;28;20037;-66
2023/04/11 04:46:55;;;;;;;3.05;0.85;;;7.40;99.90;;;;;;5055168;28;20528;-66
2023/04/11 04:49:21;;;;;;;4.15;1.00;;;7.40;99.90;;;;;;5036977;28;20044;-66
2023/04/11 04:51:47;;;;;;;5.63;1.02;;;7.40;99.90;;;;;;5055055;28;20043;-65
2023/04/11 04:54:14;;;;;;;1.65;1.08;;;7.40;99.90;;;;;;5055026;28;20484;-66
2023/04/11 04:56:40;;;;;;;1.10;0.70;;;7.40;99.90;;;;;;5054897;28;20052;-66
2023/04/11 04:59:06;;;;;;;2.35;0.70;;;7.40;99.90;;;;;;5054761;28;20044;-67
2023/04/11 05:01:31;;;;;;;2.00;0.70;;;7.40;99.90;;;;;;5054658;28;20396;-66
2023/04/11 05:03:58;;;;;;;6.68;1.42;;;7.70;99.90;;;;;;5054903;28;20068;-65
2023/04/11 05:06:28;;;;;;;2.45;0.88;;;7.50;99.90;;;;;;5054432;28;20084;-67
2023/04/11 05:08:55;;;;;;;5.13;1.52;;;7.50;99.90;;;;;;5054703;28;20045;-65
2023/04/11 05:11:22;;;;;;;11.55;1.65;;;7.50;99.90;;;;;;5054640;28;20475;-65
2023/04/11 05:13:48;;;;;;;1.95;0.98;;;7.40;99.90;;;;;;5054989;28;20079;-65
2023/04/11 05:16:15;;;;;;;3.05;0.77;;;7.50;99.90;;;;;;5054597;28;20044;-65
2023/04/11 05:18:41;;;;;;;3.92;0.70;;;7.50;99.90;;;;;;5054468;28;20408;-65
2023/04/11 05:21:06;;;;;;;2.50;0.50;;;7.50;99.90;;;;;;5054543;28;20037;-65
2023/04/11 05:23:32;;;;;;;0.70;0.60;;;7.50;99.90;;;;;;5054418;28;20060;-68
2023/04/11 05:25:58;;;;;;;5.75;1.30;;;7.50;99.90;;;;;;5054376;28;20094;-67
2023/04/11 05:28:24;;;;;;;0.93;0.60;;;7.50;99.90;;;;;;5053806;28;20037;-66
2023/04/11 05:30:49;;;;;;;1.27;0.63;;;7.50;99.90;;;;;;5053955;28;20029;-66
2023/04/11 05:33:15;;;;;;;3.60;1.08;;;7.40;99.90;;;;;;5054315;28;20247;-67
2023/04/11 05:35:41;;;;;;;4.50;0.60;;;7.40;99.90;;;;;;5054199;28;20400;-66
2023/04/11 05:38:08;;;;;;;5.68;1.30;;;7.40;99.90;;;;;;5054224;28;20048;-66
2023/04/11 05:40:35;;;;;;;1.95;0.90;;;7.50;99.90;;;;;;5054121;28;20037;-66
2023/04/11 05:43:01;;;;;;;3.35;0.93;;;7.50;99.90;;;;;;5054110;28;20484;-64
2023/04/11 05:45:26;;;;;;;2.33;0.70;;;7.50;99.90;;;;;;5053942;28;20067;-66
2023/04/11 05:47:52;;;;;;;1.70;1.02;;;7.40;99.90;;;;;;5053999;28;20041;-66
2023/04/11 05:50:18;;;;;;;3.63;1.10;;;7.40;99.90;;;;;;5053600;28;20405;-66
2023/04/11 05:52:43;;;;;;;3.10;1.48;;;7.40;99.90;;;;;;5053912;28;20067;-67
2023/04/11 05:55:09;;;;;;;1.80;0.60;;;8.40;99.90;;;;;;5035727;28;20045;-66
2023/04/11 05:57:35;;;;;;;3.50;1.27;;;7.40;99.90;;;;;;5053778;28;20426;-67
2023/04/11 06:00:03;;;;;;;4.70;1.27;;;7.40;99.90;;;;;;5053770;28;20037;-67
2023/04/11 06:02:28;;;;;;;0.88;0.60;;;7.40;99.90;;;;;;5053655;28;20040;-66
2023/04/11 06:04:54;;;;;;;1.23;0.95;;;7.40;99.90;;;;;;5053558;28;20041;-66
2023/04/11 06:07:20;;;;;;;7.85;1.48;;;7.30;99.90;;;;;;5053191;28;20051;-66
2023/04/11 06:09:46;;;;;;;2.70;0.90;;;7.40;99.90;;;;;;5053439;28;20051;-66
2023/04/11 06:12:12;;;;;;;2.50;0.73;;;7.40;99.90;;;;;;5053534;28;20115;-67
2023/04/11 06:14:38;;;;;;;2.33;1.05;;;7.40;99.90;;;;;;5053483;28;20544;-67
2023/04/11 06:17:04;;;;;;;3.10;0.90;;;7.50;99.90;;;;;;5053492;28;20040;-67
2023/04/11 06:19:30;;;;;;;2.75;0.60;;;7.50;99.90;;;;;;5053453;28;20484;-67
2023/04/11 06:21:56;;;;;;;5.00;0.90;;;7.50;99.90;;;;;;5053401;28;20394;-66
2023/04/11 06:24:34;;;;;;;3.63;1.40;;;7.50;99.90;;;;;;5053246;28;20045;-67
2023/04/11 06:27:00;;;;;;;7.45;1.83;;;7.60;99.90;;;;;;5053343;28;20072;-66
2023/04/11 06:29:26;;;;;;;7.20;1.35;;;7.60;99.90;;;;;;5052985;28;20096;-66
2023/04/11 06:31:51;;;;;;;4.72;1.40;;;7.60;99.90;;;;;;5053230;28;20032;-66
2023/04/11 06:34:17;;;;;;;8.27;1.13;;;7.70;99.90;;;;;;5035341;28;20546;-66
2023/04/11 06:36:42;;;;;;;1.13;0.90;;;8.20;99.90;;;;;;5053020;28;20033;-67
2023/04/11 06:39:08;;;;;;;2.10;1.13;;;7.80;99.90;;;;;;5053136;28;20037;-67
2023/04/11 06:41:35;;;;;;;2.60;1.00;;;7.70;99.90;;;;;;5053020;28;20051;-67
2023/04/11 06:44:00;;;;;;;1.38;1.00;;;7.70;99.90;;;;;;5053109;28;20049;-67
2023/04/11 06:46:26;;;;;;;2.05;0.80;;;7.60;99.90;;;;;;5053220;28;20067;-67
2023/04/11 06:48:52;;;;;;;1.98;0.93;;;7.50;99.90;;;;;;5052644;28;20116;-67
2023/04/11 06:51:17;;;;;;;1.35;0.90;;;7.50;99.90;;;;;;5052603;28;20550;-67
2023/04/11 06:53:43;;;;;;;5.95;1.20;;;7.60;99.90;;;;;;5052620;28;20037;-67
2023/04/11 06:56:09;;;;;;;3.70;1.08;;;7.60;99.90;;;;;;5052848;28;20128;-67
2023/04/11 06:58:35;;;;;;;5.30;1.10;;;7.70;99.90;;;;;;5052771;28;20388;-67
2023/04/11 07:01:00;;;;;;;5.05;1.10;;;7.70;99.90;;;;;;5018248;28;20503;-66
2023/04/11 07:03:26;;;;;;;4.57;1.58;;;7.80;99.90;;;;;;5052705;28;20045;-66
2023/04/11 07:05:51;;;;;;;5.97;1.45;;;7.80;99.90;;;;;;5052402;28;20053;-67
2023/04/11 07:08:17;;;;;;;2.30;0.75;;;7.80;99.90;;;;;;5052731;28;20041;-66
2023/04/11 07:10:43;;;;;;;4.47;1.10;;;7.80;99.90;;;;;;5052646;28;20488;-68
2023/04/11 07:13:08;;;;;;;2.28;0.88;;;7.80;99.90;;;;;;5052642;28;20060;-67
2023/04/11 07:15:34;;;;;;;1.40;0.65;;;7.80;99.90;;;;;;5052445;28;20158;-67
2023/04/11 07:18:00;;;;;;;6.22;0.73;;;7.90;99.90;;;;;;5052586;28;20048;-68
2023/04/11 07:20:26;;;;;;;3.00;1.08;;;7.90;99.90;;;;;;5052685;28;20075;-66
2023/04/11 07:22:51;;;;;;;3.55;1.27;;;8.00;99.90;;;;;;5052571;28;20033;-66
2023/04/11 07:25:21;;;;;;;3.05;0.93;;;8.00;99.90;;;;;;5052469;28;20045;-67
2023/04/11 07:27:48;;;;;;;1.92;1.40;;;8.10;99.90;;;;;;5052231;28;20044;-67
2023/04/11 07:30:14;;;;;;;1.58;1.08;;;8.20;99.90;;;;;;5034524;28;20124;-67
2023/04/11 07:32:40;;;;;;;1.80;0.82;;;8.30;99.90;;;;;;5052610;28;20116;-67
2023/04/11 07:35:06;;;;;;;3.25;0.65;;;8.40;99.90;;;;;;5052510;28;20094;-67
2023/04/11 07:37:31;;;;;;;2.40;0.93;;;8.50;99.90;;;;;;5052484;28;20048;-67
2023/04/11 07:39:57;;;;;;;3.65;0.90;;;8.60;99.90;;;;;;5052519;28;20412;-67
2023/04/11 07:42:22;;;;;;;2.47;1.85;;;8.80;99.90;;;;;;5052225;28;20480;-67
2023/04/11 07:44:48;;;;;;;2.83;1.05;;;8.80;99.90;;;;;;5052094;28;20045;-68
2023/04/11 07:47:14;;;;;;;7.15;0.93;;;9.00;99.90;;;;;;5052131;28;20508;-68
2023/04/11 07:49:40;;;;;;;3.50;0.65;;;9.00;99.90;;;;;;5034275;28;20051;-67
2023/04/11 07:52:05;;;;;;;3.75;1.25;;;9.00;99.90;;;;;;5052670;28;20116;-67
2023/04/11 07:54:32;;;;;;;3.38;1.00;;;9.00;99.90;;;;;;5056164;28;20049;-67
2023/04/11 07:56:58;;;;;;;3.95;1.17;;;9.10;99.90;;;;;;5055775;28;20143;-68
2023/04/11 07:59:23;;;;;;;9.50;1.13;;;8.80;99.90;;;;;;5056008;28;20080;-68
2023/04/11 08:02:00;;;;;;;4.47;1.40;;;9.00;99.90;;;;;;5055683;28;20051;-68
2023/04/11 08:04:29;;;;;;;7.20;2.25;;;9.00;99.90;;;;;;5037714;28;20128;-68
2023/04/11 08:06:56;;;;;;;1.27;0.65;;;8.90;99.90;;;;;;5055442;28;20134;-68
2023/04/11 08:09:22;;;;;;;2.08;0.60;;;8.90;99.90;;;;;;5055768;28;20451;-68
2023/04/11 08:11:47;;;;;;;1.13;1.00;;;8.90;99.90;;;;;;5055819;28;20033;-67
2023/04/11 08:14:13;;;;;;;5.82;0.82;;;9.00;99.90;;;;;;5055505;28;20044;-69
2023/04/11 08:16:39;;;;;;;7.43;1.25;;;9.10;99.90;;;;;;5055406;28;20079;-67
2023/04/11 08:19:04;;;;;;;3.33;1.08;;;9.10;99.90;;;;;;5055303;28;20479;-68
2023/04/11 08:21:30;;;;;;;4.75;1.38;;;10.10;99.90;;;;;;5037473;28;20041;-67
2023/04/11 08:23:56;;;;;;;3.65;1.40;;;9.40;99.90;;;;;;5055618;28;20400;-67
2023/04/11 08:26:22;;;;;;;7.25;1.40;;;9.50;99.90;;;;;;5037299;28;20041;-67
2023/04/11 08:28:47;;;;;;;2.92;0.73;;;10.30;99.90;;;;;;5055370;28;20082;-67
2023/04/11 08:31:13;;;;;;;2.05;0.65;;;9.40;99.90;;;;;;5055300;28;20091;-67
2023/04/11 08:33:38;;;;;;;8.13;1.15;;;9.50;99.90;;;;;;5055060;28;20439;-67
2023/04/11 08:36:08;;;;;;;7.38;1.30;;;9.50;99.90;;;;;;5055359;28;20037;-68
2023/04/11 08:38:34;;;;;;;3.40;0.85;;;9.60;99.90;;;;;;5055291;28;20451;-67
2023/04/11 08:41:00;;;;;;;4.10;0.90;;;9.80;99.90;;;;;;5055308;28;20064;-67
2023/04/11 08:43:26;;;;;;;2.42;0.88;;;9.70;99.90;;;;;;5055271;28;20469;-67
2023/04/11 08:45:51;;;;;;;3.88;1.10;;;9.40;99.90;;;;;;5054860;28;20052;-67
2023/04/11 08:48:20;;;;;;;2.80;0.68;;;9.20;99.90;;;;;;5054830;28;20058;-68
2023/04/11 08:50:46;;;;;;;4.20;0.70;;;8.90;99.90;;;;;;5055080;28;20405;-68
2023/04/11 08:53:13;;;;;;;3.10;0.95;;;8.60;99.90;;;;;;5054803;28;20033;-68
2023/04/11 08:55:48;;;;;;;2.33;0.80;;;8.50;99.90;;;;;;5055002;28;20472;-67
2023/04/11 08:58:14;;;;;;;4.63;0.70;;;8.40;99.90;;;;;;5054693;28;20041;-67
2023/04/11 09:00:39;;;;;;;1.85;0.50;;;8.30;99.90;;;;;;5036740;28;20055;-67
2023/04/11 09:03:07;;;;;;;4.22;0.52;;;8.30;99.90;;;;;;5054664;28;20469;-67
2023/04/11 09:05:39;;;;;;;4.10;1.20;;;8.20;99.90;;;;;;5053732;28;20471;-67
2023/04/11 09:08:10;;;;;;;2.33;0.70;;;8.00;99.90;;;;;;5054798;28;20037;-67
2023/04/11 09:10:37;;;;;;;4.78;1.15;;;7.70;99.90;;;;;;5054735;28;20409;-68
2023/04/11 09:13:26;;;;;;;5.40;0.73;;;7.60;99.90;;;;;;5054742;28;20041;-67
2023/04/11 09:16:10;;;;;;;2.97;0.77;;;7.50;99.90;;;;;;5043802;28;20060;-68
2023/04/11 09:18:38;;;;;;;3.75;1.23;;;7.50;99.90;;;;;;5036443;28;20036;-67
2023/04/11 09:21:07;;;;;;;1.05;0.65;;;7.70;99.90;;;;;;5054543;28;20094;-67
2023/04/11 09:23:33;;;;;;;3.75;0.85;;;8.00;99.90;;;;;;5054428;28;20080;-68
2023/04/11 09:25:59;;;;;;;5.00;0.93;;;8.20;99.90;;;;;;5054071;28;20044;-68
2023/04/11 09:28:25;;;;;;;1.40;0.50;;;8.30;99.90;;;;;;5054393;28;20033;-68
2023/04/11 09:30:54;;;;;;;5.90;1.02;;;8.30;99.90;;;;;;5053958;28;20132;-67
2023/04/11 09:33:27;;;;;;;3.30;1.27;;;8.30;99.90;;;;;;5054007;28;20041;-67
2023/04/11 09:35:54;;;;;;;4.07;1.10;;;8.50;99.90;;;;;;5053903;28;20037;-66
2023/04/11 09:38:31;;;;;;;3.20;0.68;;;8.70;99.90;;;;;;5054271;28;20041;-68
2023/04/11 09:40:58;;;;;;;1.77;0.75;;;9.10;99.90;;;;;;5054118;28;20037;-67
2023/04/11 09:43:24;;;;;;;3.10;0.82;;;9.80;99.90;;;;;;5035962;28;20099;-67
2023/04/11 09:46:08;;;;;;;1.73;1.17;;;9.70;99.90;;;;;;5053954;28;20428;-67
2023/04/11 09:48:36;;;;;;;2.22;0.70;;;9.60;99.90;;;;;;5035854;28;20076;-67
2023/04/11 09:51:05;;;;;;;2.10;0.75;;;9.50;99.90;;;;;;5053803;28;20049;-68
2023/04/11 09:53:33;;;;;;;2.92;0.90;;;9.60;99.90;;;;;;5053924;28;20076;-67
2023/04/11 09:55:59;;;;;;;1.60;0.73;;;9.50;99.90;;;;;;5053798;28;20040;-67
2023/04/11 09:58:26;;;;;;;2.25;0.88;;;9.30;99.90;;;;;;5035972;28;20559;-67
2023/04/11 10:00:53;;;;;;;1.33;0.77;;;9.10;99.90;;;;;;5053765;28;20063;-67
2023/04/11 10:03:21;;;;;;;6.97;0.60;;;9.20;99.90;;;;;;5053812;28;20037;-68
2023/04/11 10:05:47;;;;;;;1.75;0.77;;;9.50;99.90;;;;;;5035281;28;20061;-68
2023/04/11 10:08:29;;;;;;;1.88;0.40;;;;;;;;;;5035516;28;20068;-67
2023/04/11 10:10:56;;;;;;;3.80;0.90;;;9.90;99.90;;;;;;5053357;28;20086;-68
2023/04/11 10:13:33;;;;;;;2.20;0.90;;;9.90;99.90;;;;;;5053535;28;20036;-67
2023/04/11 10:16:17;;;;;;;0.95;0.60;;;9.70;99.90;;;;;;5053248;28;20045;-67
2023/04/11 10:19:17;;;;;;;4.68;0.80;;;9.60;99.90;;;;;;5053477;28;20037;-67
2023/04/11 10:21:44;;;;;;;3.80;0.70;;;9.40;99.90;;;;;;5053079;28;20048;-67
2023/04/11 10:24:19;;;;;;;5.15;0.90;;;9.40;99.90;;;;;;5053408;28;20045;-67
2023/04/11 10:26:56;;;;;;;2.45;1.00;;;9.40;99.90;;;;;;5035218;28;20484;-67
2023/04/11 10:29:27;;;;;;;2.72;0.40;;;9.50;99.90;;;;;;5053242;28;20040;-67
2023/04/11 10:32:14;;;;;;;5.05;0.70;;;9.70;99.90;;;;;;5035077;28;20037;-67
2023/04/11 10:34:49;;;;;;;2.53;0.70;;;10.00;99.90;;;;;;5053200;28;20432;-67
2023/04/11 10:37:16;;;;;;;6.55;1.25;;;10.30;99.90;;;;;;5053124;28;20531;-67
2023/04/11 10:39:50;;;;;;;3.30;0.40;;;10.60;99.90;;;;;;5052993;28;20043;-67
2023/04/11 10:42:35;;;;;;;2.67;0.80;;;10.90;99.90;;;;;;5053069;28;20049;-67
2023/04/11 10:45:13;;;;;;;5.18;1.40;;;10.90;74.60;;;;;;5052997;28;20392;-68
2023/04/11 10:47:39;;;;;;;2.42;0.88;;;11.40;49.10;;;;;;5053041;28;20404;-68
2023/04/11 10:50:25;;;;;;;1.95;0.60;;;11.50;55.70;;;;;;5052763;28;20040;-68
2023/04/11 10:52:52;;;;;;;3.10;1.20;;;10.80;82.40;;;;;;5038767;28;20135;-67
2023/04/11 10:55:18;;;;;;;1.65;1.10;;;10.10;90.30;;;;;;5052624;28;20045;-67
2023/04/11 10:58:15;;;;;;;3.42;0.55;;;10.50;96.20;;;;;;5052862;28;20041;-66
2023/04/11 11:00:52;;;;;;;2.72;0.70;;;10.00;94.80;;;;;;5052839;28;20040;-69
2023/04/11 11:03:29;;;;;;;7.22;0.70;;;10.10;65.90;;;;;;5034680;28;20048;-67
2023/04/11 11:06:01;;;;;;;3.15;0.85;;;10.20;46.00;;;;;;5052540;28;20085;-68
2023/04/11 11:08:31;;;;;;;0.65;0.50;;;10.40;66.80;;;;;;5052798;28;20124;-68
2023/04/11 11:11:01;;;;;;;1.45;0.75;;;10.60;74.40;;;;;;5052822;28;20111;-68
2023/04/11 11:13:37;;;;;;;0.88;0.40;;;10.80;93.70;;;;;;5052685;28;20421;-68
2023/04/11 11:16:03;;;;;;;0.30;0.30;;;10.90;93.80;;;;;;5052522;28;20087;-68
2023/04/11 11:18:29;;;;;;;1.60;0.70;;;10.90;90.50;;;;;;5034591;28;20408;-68
2023/04/11 11:20:55;;;;;;;2.60;0.45;;;10.60;75.90;;;;;;5052432;28;20029;-67
2023/04/11 11:23:21;;;;;;;1.38;0.80;;;10.30;94.20;;;;;;5034732;28;20382;-68
2023/04/11 11:25:57;;;;;;;1.23;0.35;;;9.90;77.60;;;;;;5018288;28;20124;-67
2023/04/11 11:28:23;;;;;;;2.65;0.85;;;9.70;85.30;;;;;;5037500;28;20044;-67
2023/04/11 11:30:56;;;;;;;20.70;18.90;;;9.30;92.20;;;;;;5038484;28;20037;-67
2023/04/11 11:33:25;;;;;;;9.57;6.60;;;9.20;99.90;;;;;;5056530;28;20045;-67
2023/04/11 11:35:53;;;;;;;4.65;4.15;;;9.00;99.90;;;;;;5056265;28;20060;-67
2023/04/11 11:38:19;;;;;;;2.42;1.50;;;8.80;99.90;;;;;;5038326;28;20048;-67
2023/04/11 11:40:48;;;;;;;1.42;0.85;;;8.70;99.90;;;;;;5056371;28;20029;-67
2023/04/11 11:43:15;;;;;;;2.72;0.70;;;8.50;99.90;;;;;;5056148;28;20033;-67
2023/04/11 11:45:41;;;;;;;1.48;0.60;;;8.60;99.90;;;;;;5055984;28;20044;-67
2023/04/11 11:48:07;;;;;;;3.30;1.10;;;8.70;99.90;;;;;;5056335;28;20037;-67
2023/04/11 11:50:32;;;;;;;1.85;0.60;;;8.90;99.90;;;;;;5056181;28;20043;-66
2023/04/11 11:53:13;;;;;;;1.25;1.00;;;9.20;99.90;;;;;;5056156;28;20107;-67
2023/04/11 11:55:40;;;;;;;3.72;1.05;;;9.10;99.90;;;;;;5055875;28;20481;-67
2023/04/11 11:58:06;;;;;;;3.78;0.90;;;9.50;99.90;;;;;;5056193;28;20508;-67
2023/04/11 12:00:36;;;;;;;7.22;1.58;;;9.70;99.90;;;;;;5055607;28;20083;-67
2023/04/11 12:03:03;;;;;;;4.28;0.73;;;10.00;99.90;;;;;;5056033;28;20407;-67
2023/04/11 12:05:33;;;;;;;1.75;0.50;;;10.20;94.90;;;;;;5055508;28;20443;-67
2023/04/11 12:08:04;;;;;;;4.07;0.43;;;10.80;99.90;;;;;;5055966;28;20416;-67
2023/04/11 12:10:39;;;;;;;4.13;0.80;;;11.20;99.90;;;;;;5055637;28;20159;-68
2023/04/11 12:13:21;;;;;;;1.83;0.85;;;11.70;77.60;;;;;;5055843;28;20721;-68
2023/04/11 12:15:52;;;;;;;8.07;0.80;;;11.20;33.90;;;;;;5037670;28;20056;-67
2023/04/11 12:18:22;;;;;;;0.73;0.63;;;11.00;53.40;;;;;;5037597;28;20091;-67
2023/04/11 12:20:48;;;;;;;4.57;0.95;;;10.90;95.20;;;;;;5055757;28;20041;-67
2023/04/11 12:23:14;;;;;;;5.30;0.73;;;10.80;89.00;;;;;;5037731;28;20114;-73
2023/04/11 12:25:40;;;;;;;3.92;0.55;;;10.70;65.70;;;;;;5055568;28;20040;-67
2023/04/11 12:28:06;;;;;;;3.75;0.88;;;10.70;22.70;;;;;;5055230;28;20041;-67
2023/04/11 12:30:32;;;;;;;13.35;5.15;;;10.80;1.00;;;;;;5055439;28;20435;-67
2023/04/11 12:32:58;;;;;;;2.47;1.00;;;11.10;99.90;;;;;;5055494;28;20094;-68
2023/04/11 12:35:23;;;;;;;2.60;1.17;;;11.40;99.90;;;;;;5055104;28;20431;-67
2023/04/11 12:37:49;;;;;;;1.55;0.57;;;11.70;99.90;;;;;;5055227;28;20122;-67
2023/04/11 12:40:15;;;;;;;4.35;0.55;;;11.80;1.00;;;;;;5055342;28;20515;-68
2023/04/11 12:42:44;;;;;;;0.47;0.38;;;12.00;99.90;;;;;;5055254;28;20060;-67
2023/04/11 12:45:11;;;;;;;0.82;0.30;;;12.00;99.90;;;;;;5055183;28;20048;-67
2023/04/11 12:47:37;;;;;;;0.85;0.45;;;11.80;1.00;;;;;;5037059;28;20092;-67
2023/04/11 12:50:03;;;;;;;5.28;0.88;;;11.80;99.90;;;;;;5055138;28;20504;-67
2023/04/11 12:52:29;;;;;;;1.58;0.70;;;12.00;99.90;;;;;;5055107;28;20485;-67
2023/04/11 12:54:55;;;;;;;4.88;0.55;;;12.20;1.00;;;;;;5055017;28;20048;-67
2023/04/11 12:57:21;;;;;;;1.17;0.68;;;12.00;1.00;;;;;;5055029;28;20424;-66